Time;durP1;ratioP1;P1;durP2;ratioP2;P2;SDS_P1;SDS_P2;PMS_P1;PMS_P2;Temp;Humidity;BMP_temperature;BMP_pressure;BME280_temperature;BME280_humidity;BME280_pressure;Samples;Min_cycle;Max_cycle;Signal;HPM_P1;HPM_P2
2021/08/25 00:00:57;;;;;;;5.32;3.30;;;24.50;52.90;;;;;;6110743;28;80478;-63
2021/08/25 00:03:57;;;;;;;5.75;3.25;;;24.50;52.90;;;;;;6109725;28;81695;-64
2021/08/25 00:06:58;;;;;;;6.00;3.53;;;24.50;53.10;;;;;;6110964;28;81211;-63
2021/08/25 00:09:58;;;;;;;5.07;3.53;;;24.50;52.90;;;;;;6103686;28;80262;-64
2021/08/25 00:13:02;;;;;;;6.07;3.67;;;24.50;52.90;;;;;;6109448;28;81063;-64
2021/08/25 00:16:03;;;;;;;5.22;3.63;;;24.50;52.90;;;;;;6109992;28;80851;-63
2021/08/25 00:19:03;;;;;;;4.95;3.50;;;24.50;53.00;;;;;;6109664;28;80502;-63
2021/08/25 00:22:04;;;;;;;5.65;3.33;;;24.50;52.80;;;;;;6109355;28;81021;-63
2021/08/25 00:25:04;;;;;;;5.90;3.65;;;24.50;52.80;;;;;;6108952;28;80276;-63
2021/08/25 00:28:05;;;;;;;5.10;3.53;;;24.50;52.70;;;;;;6108441;28;81892;-62
2021/08/25 00:31:06;;;;;;;12.77;3.70;;;24.50;52.70;;;;;;6093072;28;81712;-62
2021/08/25 00:34:06;;;;;;;4.68;3.22;;;24.40;52.50;;;;;;6107989;28;81493;-62
2021/08/25 00:37:07;;;;;;;4.75;3.40;;;24.50;52.60;;;;;;6109951;28;81358;-63
2021/08/25 00:40:07;;;;;;;5.30;3.25;;;24.40;52.40;;;;;;6090185;28;82243;-63
2021/08/25 00:43:08;;;;;;;4.65;3.10;;;24.50;52.50;;;;;;6102627;28;84730;-63
2021/08/25 00:46:08;;;;;;;7.32;3.80;;;24.40;52.40;;;;;;6110015;28;80286;-63
2021/08/25 00:49:09;;;;;;;5.85;3.40;;;24.50;52.50;;;;;;6091774;28;80919;-63
2021/08/25 00:52:09;;;;;;;4.63;3.03;;;24.50;52.60;;;;;;6109609;28;80922;-63
2021/08/25 00:55:11;;;;;;;5.30;3.47;;;24.40;52.40;;;;;;6108318;28;81361;-63
2021/08/25 00:58:13;;;;;;;6.28;4.35;;;24.40;52.30;;;;;;6110141;28;80608;-63
2021/08/25 01:01:15;;;;;;;5.53;3.60;;;24.40;52.20;;;;;;6107806;28;81681;-63
2021/08/25 01:04:16;;;;;;;5.15;3.53;;;24.40;52.10;;;;;;6108569;28;80361;-63
2021/08/25 01:07:16;;;;;;;4.47;3.53;;;24.50;52.30;;;;;;6090615;28;82022;-62
2021/08/25 01:10:17;;;;;;;6.15;3.40;;;24.40;52.10;;;;;;6109260;28;80275;-63
2021/08/25 01:13:17;;;;;;;6.13;3.95;;;24.40;52.70;;;;;;6109141;28;80694;-63
2021/08/25 01:16:18;;;;;;;7.15;4.50;;;24.40;52.20;;;;;;6108268;28;80429;-63
2021/08/25 01:19:18;;;;;;;5.50;3.55;;;24.40;52.00;;;;;;6109461;28;80423;-63
2021/08/25 01:22:19;;;;;;;4.43;3.58;;;24.30;52.00;;;;;;6089781;28;80280;-63
2021/08/25 01:25:19;;;;;;;5.90;3.75;;;24.30;51.90;;;;;;6091038;28;82255;-64
2021/08/25 01:28:20;;;;;;;5.13;3.40;;;24.30;51.90;;;;;;6108808;28;80367;-64
2021/08/25 01:31:20;;;;;;;5.15;3.70;;;24.40;51.90;;;;;;6109935;28;80228;-63
2021/08/25 01:34:20;;;;;;;4.70;3.10;;;24.30;51.80;;;;;;6089753;28;81883;-64
2021/08/25 01:37:21;;;;;;;7.40;3.83;;;24.40;51.70;;;;;;6109034;28;80842;-63
2021/08/25 01:40:21;;;;;;;4.20;3.42;;;24.30;51.70;;;;;;6088763;28;80236;-63
2021/08/25 01:43:22;;;;;;;5.22;3.60;;;24.30;51.70;;;;;;6109566;28;80465;-63
2021/08/25 01:46:22;;;;;;;5.50;3.83;;;24.40;51.90;;;;;;6109667;28;82533;-63
2021/08/25 01:49:23;;;;;;;7.20;3.80;;;24.30;51.70;;;;;;6109218;28;80822;-63
2021/08/25 01:52:23;;;;;;;5.00;3.20;;;24.30;51.60;;;;;;6108815;28;81634;-63
2021/08/25 01:55:24;;;;;;;4.85;3.92;;;24.30;51.50;;;;;;6106552;28;80752;-63
2021/08/25 01:58:24;;;;;;;5.32;3.65;;;24.30;51.50;;;;;;6108406;28;80701;-63
2021/08/25 02:01:25;;;;;;;6.78;4.70;;;24.30;51.50;;;;;;6107401;28;80790;-63
2021/08/25 02:04:25;;;;;;;6.07;3.83;;;24.30;51.50;;;;;;6108921;28;81183;-63
2021/08/25 02:07:26;;;;;;;4.78;3.35;;;24.30;51.50;;;;;;6074195;28;80467;-63
2021/08/25 02:10:27;;;;;;;5.60;3.80;;;24.30;51.40;;;;;;6109716;28;80707;-63
2021/08/25 02:13:28;;;;;;;5.93;3.95;;;24.30;51.40;;;;;;6111885;28;80319;-63
2021/08/25 02:16:28;;;;;;;4.68;3.67;;;24.30;51.30;;;;;;6112404;28;80647;-63
2021/08/25 02:19:29;;;;;;;6.22;3.53;;;24.30;51.30;;;;;;6110807;28;81610;-63
2021/08/25 02:22:29;;;;;;;7.88;3.58;;;24.30;51.40;;;;;;6113283;28;80664;-63
2021/08/25 02:25:30;;;;;;;6.05;3.55;;;24.30;51.10;;;;;;6110382;28;80193;-63
2021/08/25 02:28:30;;;;;;;5.68;3.70;;;24.30;51.00;;;;;;6112537;28;80568;-63
2021/08/25 02:31:31;;;;;;;5.90;4.00;;;24.30;51.00;;;;;;6110350;28;81698;-63
2021/08/25 02:34:33;;;;;;;5.97;3.45;;;24.30;51.00;;;;;;6110093;28;82631;-64
2021/08/25 02:37:33;;;;;;;6.22;3.90;;;24.20;50.90;;;;;;6093542;28;81689;-63
2021/08/25 02:40:33;;;;;;;7.85;3.72;;;24.30;51.00;;;;;;6107261;28;80213;-63
2021/08/25 02:43:34;;;;;;;5.45;3.47;;;24.20;51.00;;;;;;6107154;28;80762;-63
2021/08/25 02:46:35;;;;;;;7.80;3.88;;;24.30;50.90;;;;;;6094511;28;80873;-63
2021/08/25 02:49:35;;;;;;;6.75;3.60;;;24.30;50.90;;;;;;6097588;28;80597;-63
2021/08/25 02:52:35;;;;;;;5.57;3.70;;;24.20;50.80;;;;;;6099946;28;80300;-63
2021/08/25 02:55:36;;;;;;;4.93;3.33;;;24.30;50.70;;;;;;6110420;28;80575;-63
2021/08/25 02:58:36;;;;;;;5.95;3.72;;;24.20;50.80;;;;;;6110978;28;81735;-64
2021/08/25 03:01:37;;;;;;;5.78;3.78;;;24.30;50.60;;;;;;6111362;28;80537;-63
2021/08/25 03:04:37;;;;;;;8.25;3.92;;;24.20;50.60;;;;;;6111729;28;81968;-62
2021/08/25 03:07:38;;;;;;;5.35;3.65;;;24.20;50.60;;;;;;6110658;28;81193;-62
2021/08/25 03:10:38;;;;;;;4.45;3.47;;;24.20;50.80;;;;;;6089689;28;81128;-63
2021/08/25 03:13:39;;;;;;;5.80;4.05;;;24.20;50.60;;;;;;6108512;28;81502;-66
2021/08/25 03:16:39;;;;;;;6.13;3.97;;;24.20;50.60;;;;;;6092652;28;80722;-62
2021/08/25 03:19:40;;;;;;;5.70;3.80;;;24.20;50.50;;;;;;6110070;28;80347;-62
2021/08/25 03:22:40;;;;;;;8.05;3.97;;;24.20;50.60;;;;;;6108630;28;80598;-62
2021/08/25 03:25:41;;;;;;;7.15;3.90;;;24.20;50.60;;;;;;6110648;28;80466;-64
2021/08/25 03:28:41;;;;;;;6.50;4.35;;;24.20;50.50;;;;;;6111742;28;80659;-63
2021/08/25 03:31:42;;;;;;;5.82;3.65;;;24.20;50.60;;;;;;6111223;28;81330;-63
2021/08/25 03:34:42;;;;;;;8.40;4.43;;;24.20;50.50;;;;;;6109699;28;80866;-63
2021/08/25 03:37:43;;;;;;;7.22;4.45;;;24.20;50.50;;;;;;6109316;28;80445;-64
2021/08/25 03:40:43;;;;;;;6.97;4.13;;;24.10;50.30;;;;;;6110353;28;80920;-63
2021/08/25 03:43:43;;;;;;;6.28;4.35;;;24.20;50.40;;;;;;6114232;28;80319;-65
2021/08/25 03:46:44;;;;;;;4.90;3.53;;;24.20;50.40;;;;;;6109638;28;80372;-64
2021/08/25 03:49:44;;;;;;;4.47;3.63;;;24.10;50.30;;;;;;6108498;28;80594;-64
2021/08/25 03:52:45;;;;;;;6.07;3.72;;;24.20;50.40;;;;;;6091767;28;81385;-63
2021/08/25 03:55:45;;;;;;;4.75;3.78;;;24.20;50.20;;;;;;6107201;28;80388;-63
2021/08/25 03:58:46;;;;;;;8.10;3.55;;;24.10;50.40;;;;;;6090809;28;82432;-64
2021/08/25 04:01:46;;;;;;;6.72;3.90;;;24.10;50.30;;;;;;6097256;28;81556;-64
2021/08/25 04:04:47;;;;;;;9.15;3.83;;;24.10;50.40;;;;;;6106793;28;81779;-64
2021/08/25 04:07:47;;;;;;;6.40;4.00;;;24.10;50.40;;;;;;6109316;28;81758;-65
2021/08/25 04:10:48;;;;;;;5.85;3.85;;;24.10;50.50;;;;;;6108141;28;87277;-64
2021/08/25 04:13:48;;;;;;;7.97;4.25;;;24.10;50.60;;;;;;6109791;28;80653;-65
2021/08/25 04:16:49;;;;;;;7.00;4.30;;;24.10;50.60;;;;;;6110597;28;81549;-63
2021/08/25 04:19:49;;;;;;;5.78;3.30;;;24.10;50.70;;;;;;6111233;28;82914;-65
2021/08/25 04:22:50;;;;;;;10.10;4.50;;;24.10;50.90;;;;;;6110617;28;80847;-64
2021/08/25 04:25:50;;;;;;;7.72;4.45;;;24.10;50.80;;;;;;6109654;28;81530;-64
2021/08/25 04:28:51;;;;;;;8.88;3.90;;;24.20;50.90;;;;;;6092794;28;80524;-65
2021/08/25 04:31:51;;;;;;;8.25;4.03;;;24.20;51.10;;;;;;6109708;28;81191;-65
2021/08/25 04:34:52;;;;;;;5.00;3.85;;;24.10;50.90;;;;;;6118971;28;80822;-64
2021/08/25 04:37:52;;;;;;;7.53;3.75;;;24.20;50.80;;;;;;6114546;28;81300;-65
2021/08/25 04:40:53;;;;;;;8.30;4.50;;;24.20;50.80;;;;;;6095153;28;81412;-64
2021/08/25 04:43:55;;;;;;;5.72;4.10;;;24.20;50.60;;;;;;6111272;28;80722;-64
2021/08/25 04:46:55;;;;;;;5.57;3.80;;;24.10;50.50;;;;;;6111049;28;80837;-66
2021/08/25 04:49:56;;;;;;;12.05;4.32;;;24.10;50.50;;;;;;6108679;28;80675;-64
2021/08/25 04:52:56;;;;;;;6.63;4.38;;;24.10;50.50;;;;;;6111171;28;81170;-64
2021/08/25 04:55:57;;;;;;;7.53;3.95;;;24.10;50.60;;;;;;6104188;28;81312;-64
2021/08/25 04:58:57;;;;;;;6.18;4.07;;;24.10;50.70;;;;;;6116086;28;80689;-64
2021/08/25 05:01:58;;;;;;;8.07;3.88;;;24.10;50.70;;;;;;6109391;28;80866;-64
2021/08/25 05:04:58;;;;;;;7.07;4.28;;;24.10;50.90;;;;;;6109108;28;80968;-65
2021/08/25 05:07:59;;;;;;;6.57;4.20;;;24.10;51.20;;;;;;6078222;28;82222;-64
2021/08/25 05:10:59;;;;;;;6.57;4.20;;;24.10;51.10;;;;;;6111882;28;80271;-65
2021/08/25 05:14:00;;;;;;;21.55;4.88;;;24.20;50.90;;;;;;6111024;28;81286;-65
2021/08/25 05:17:00;;;;;;;7.78;3.75;;;24.20;51.10;;;;;;6110059;28;81023;-64
2021/08/25 05:20:01;;;;;;;6.40;4.00;;;24.20;51.20;;;;;;6109394;28;80437;-65
2021/08/25 05:23:01;;;;;;;9.32;4.40;;;24.20;51.30;;;;;;6108486;28;80508;-63
2021/08/25 05:26:02;;;;;;;8.90;4.25;;;24.20;51.40;;;;;;6112916;28;81765;-63
2021/08/25 05:29:02;;;;;;;8.77;4.72;;;24.20;51.10;;;;;;6109902;28;81497;-63
2021/08/25 05:32:03;;;;;;;8.98;4.45;;;24.30;51.20;;;;;;6091397;28;83016;-64
2021/08/25 05:35:03;;;;;;;9.07;4.90;;;24.30;51.40;;;;;;6109109;28;81118;-64
2021/08/25 05:38:04;;;;;;;9.18;4.82;;;24.30;51.00;;;;;;6108438;28;81178;-64
2021/08/25 05:41:04;;;;;;;12.27;5.30;;;24.30;51.60;;;;;;6106713;28;81695;-64
2021/08/25 05:44:05;;;;;;;9.07;5.47;;;24.30;51.30;;;;;;6106231;28;80553;-63
2021/08/25 05:47:05;;;;;;;9.00;5.25;;;24.30;51.40;;;;;;6112091;28;80381;-64
2021/08/25 05:50:06;;;;;;;9.73;5.72;;;24.30;51.30;;;;;;6114054;28;80782;-64
2021/08/25 05:53:08;;;;;;;10.30;5.82;;;24.30;51.20;;;;;;6118390;28;80270;-65
2021/08/25 05:56:09;;;;;;;10.77;5.93;;;24.30;51.60;;;;;;6113485;28;80744;-64
2021/08/25 05:59:09;;;;;;;13.50;6.05;;;24.30;51.00;;;;;;6116128;28;81685;-64
2021/08/25 06:02:10;;;;;;;15.30;5.75;;;24.40;50.50;;;;;;6098629;28;80365;-64
2021/08/25 06:05:11;;;;;;;11.15;5.47;;;24.40;50.40;;;;;;6118245;28;81898;-63
2021/08/25 06:08:12;;;;;;;11.15;5.47;;;24.30;50.40;;;;;;6112737;28;81738;-65
2021/08/25 06:11:12;;;;;;;10.10;4.88;;;24.40;50.50;;;;;;6096441;28;83135;-65
2021/08/25 06:14:13;;;;;;;9.98;5.47;;;24.30;50.60;;;;;;6112984;28;80374;-64
2021/08/25 06:17:13;;;;;;;12.25;5.30;;;24.40;50.60;;;;;;6113980;28;81075;-63
2021/08/25 06:20:14;;;;;;;9.43;5.15;;;24.40;50.70;;;;;;6115499;28;81096;-67
2021/08/25 06:23:14;;;;;;;11.60;6.03;;;24.40;50.60;;;;;;6112945;28;80685;-65
2021/08/25 06:26:15;;;;;;;9.55;5.80;;;24.40;51.30;;;;;;6112030;28;80722;-66
2021/08/25 06:29:15;;;;;;;9.07;5.53;;;24.40;51.00;;;;;;6095707;28;81492;-66
2021/08/25 06:32:16;;;;;;;11.00;5.72;;;24.40;51.00;;;;;;6111900;28;80437;-66
2021/08/25 06:35:16;;;;;;;11.10;5.05;;;24.40;51.20;;;;;;6112607;28;81431;-67
2021/08/25 06:38:17;;;;;;;9.45;5.43;;;24.40;51.10;;;;;;6109583;28;81774;-65
2021/08/25 06:41:17;;;;;;;11.07;5.15;;;24.40;51.20;;;;;;6111719;28;80478;-65
2021/08/25 06:44:18;;;;;;;9.27;5.40;;;24.40;51.20;;;;;;6113835;28;80682;-65
2021/08/25 06:47:18;;;;;;;11.70;5.47;;;24.40;51.30;;;;;;6113590;28;80238;-66
2021/08/25 06:50:19;;;;;;;10.43;5.50;;;24.50;51.30;;;;;;6112979;28;80445;-66
2021/08/25 06:53:21;;;;;;;10.75;5.72;;;24.40;51.40;;;;;;6095120;28;83242;-65
2021/08/25 06:56:22;;;;;;;15.77;5.10;;;24.40;51.80;;;;;;6110350;28;83021;-65
2021/08/25 06:59:22;;;;;;;9.68;5.22;;;24.50;51.40;;;;;;6112735;28;80443;-67
2021/08/25 07:02:23;;;;;;;10.20;5.30;;;24.50;52.10;;;;;;6112949;28;81666;-65
2021/08/25 07:05:23;;;;;;;8.65;5.20;;;24.50;52.30;;;;;;6111550;28;80478;-65
2021/08/25 07:08:24;;;;;;;12.73;5.68;;;24.50;52.20;;;;;;6113673;28;81434;-65
2021/08/25 07:11:24;;;;;;;9.93;6.18;;;24.50;52.00;;;;;;6094986;28;81973;-68
2021/08/25 07:14:25;;;;;;;11.20;5.72;;;24.50;52.30;;;;;;6092830;28;81341;-65
2021/08/25 07:17:25;;;;;;;16.02;7.22;;;24.50;52.20;;;;;;6118873;28;80521;-65
2021/08/25 07:20:26;;;;;;;12.80;7.05;;;24.50;51.70;;;;;;6093188;28;81909;-64
2021/08/25 07:23:26;;;;;;;12.48;6.60;;;24.50;51.90;;;;;;6116673;28;80526;-64
2021/08/25 07:26:27;;;;;;;13.07;6.95;;;24.60;52.00;;;;;;6116061;28;80991;-68
2021/08/25 07:29:27;;;;;;;12.43;6.38;;;24.50;52.10;;;;;;6114027;28;80845;-66
2021/08/25 07:32:28;;;;;;;14.45;6.78;;;24.60;52.00;;;;;;6110506;28;81172;-66
2021/08/25 07:35:30;;;;;;;13.15;6.10;;;24.60;52.20;;;;;;6076954;28;81449;-64
2021/08/25 07:38:30;;;;;;;13.75;6.85;;;24.60;52.10;;;;;;6089171;28;81532;-65
2021/08/25 07:41:31;;;;;;;11.35;5.97;;;24.50;52.40;;;;;;6085508;28;80694;-68
2021/08/25 07:44:31;;;;;;;12.15;6.15;;;24.50;51.80;;;;;;6092666;28;81265;-67
2021/08/25 07:47:32;;;;;;;11.60;6.00;;;24.60;51.40;;;;;;6110644;28;82091;-64
2021/08/25 07:50:32;;;;;;;14.90;5.97;;;24.60;52.00;;;;;;6114805;28;80621;-65
2021/08/25 07:53:32;;;;;;;12.00;6.03;;;24.60;52.30;;;;;;6045851;28;83231;-64
2021/08/25 07:56:33;;;;;;;9.85;5.90;;;24.60;52.00;;;;;;6090384;28;80953;-67
2021/08/25 07:59:33;;;;;;;10.75;5.70;;;24.60;52.00;;;;;;6086736;28;80901;-67
2021/08/25 08:02:34;;;;;;;8.38;5.18;;;24.60;52.10;;;;;;6082348;28;85817;-66
2021/08/25 08:05:34;;;;;;;9.48;5.25;;;24.60;52.10;;;;;;6080553;28;82313;-66
2021/08/25 08:08:35;;;;;;;9.77;5.32;;;24.60;51.90;;;;;;6072668;28;80370;-65
2021/08/25 08:11:35;;;;;;;11.02;5.90;;;24.60;51.30;;;;;;6079946;28;81111;-66
2021/08/25 08:14:36;;;;;;;10.65;5.88;;;24.60;51.10;;;;;;6082689;28;80819;-67
2021/08/25 08:17:37;;;;;;;12.20;6.38;;;24.60;50.50;;;;;;6084138;28;81513;-67
2021/08/25 08:20:37;;;;;;;10.60;5.15;;;24.60;50.90;;;;;;6066351;28;80889;-66
2021/08/25 08:23:39;;;;;;;17.00;6.00;;;24.60;50.90;;;;;;6071043;28;83569;-66
2021/08/25 08:26:39;;;;;;;10.57;5.88;;;24.60;50.60;;;;;;6108081;28;81364;-66
2021/08/25 08:29:40;;;;;;;12.40;6.13;;;24.60;50.60;;;;;;6086725;28;80752;-65
2021/08/25 08:32:40;;;;;;;10.60;5.72;;;24.60;50.50;;;;;;6088526;28;82704;-66
2021/08/25 08:35:40;;;;;;;9.50;5.47;;;24.60;50.40;;;;;;6091953;28;81001;-67
2021/08/25 08:38:41;;;;;;;10.30;5.78;;;24.60;50.60;;;;;;6079217;28;81574;-68
2021/08/25 08:41:41;;;;;;;9.88;6.00;;;24.60;50.40;;;;;;6092247;28;81690;-65
2021/08/25 08:44:42;;;;;;;10.05;6.07;;;24.60;50.50;;;;;;6109800;28;81563;-67
2021/08/25 08:47:42;;;;;;;13.10;5.82;;;24.60;50.30;;;;;;6114053;28;80461;-67
2021/08/25 08:50:43;;;;;;;12.10;6.07;;;24.60;50.30;;;;;;6108049;28;81101;-67
2021/08/25 08:53:43;;;;;;;9.27;5.72;;;24.60;50.20;;;;;;6089203;28;80390;-68
2021/08/25 08:56:44;;;;;;;12.25;5.82;;;24.60;50.20;;;;;;6083160;28;80409;-67
2021/08/25 08:59:44;;;;;;;12.05;6.15;;;24.60;50.40;;;;;;6088327;28;80554;-68
2021/08/25 09:02:45;;;;;;;9.57;5.95;;;24.50;50.20;;;;;;6087441;28;80407;-67
2021/08/25 09:05:45;;;;;;;11.02;5.68;;;24.60;49.60;;;;;;6109005;28;80686;-66
2021/08/25 09:08:47;;;;;;;10.82;5.93;;;24.60;49.80;;;;;;6109803;28;81446;-65
2021/08/25 09:11:47;;;;;;;13.05;5.80;;;24.60;50.20;;;;;;6110624;28;81134;-66
2021/08/25 09:14:48;;;;;;;11.40;6.00;;;24.60;50.50;;;;;;6112827;28;82049;-66
2021/08/25 09:17:49;;;;;;;10.80;5.85;;;24.60;51.40;;;;;;6111357;28;80926;-66
2021/08/25 09:20:49;;;;;;;11.40;6.00;;;24.60;51.70;;;;;;6117005;28;80770;-66
2021/08/25 09:23:50;;;;;;;13.68;5.68;;;24.60;51.80;;;;;;6107999;28;81801;-68
2021/08/25 09:26:50;;;;;;;14.52;5.35;;;24.60;52.10;;;;;;6096622;28;83197;-65
2021/08/25 09:32:28;;;;;;;14.45;5.28;;;24.70;50.80;;;;;;6255138;28;76276;-67
2021/08/25 09:35:29;;;;;;;9.73;5.63;;;24.70;51.60;;;;;;6155778;28;85969;-67
2021/08/25 09:38:29;;;;;;;14.88;6.97;;;24.70;51.50;;;;;;6186207;28;83777;-65
2021/08/25 09:41:30;;;;;;;16.60;6.13;;;24.70;52.30;;;;;;6151047;28;80342;-67
2021/08/25 09:44:30;;;;;;;12.63;6.72;;;24.70;52.20;;;;;;6155835;28;81192;-66
2021/08/25 09:47:31;;;;;;;14.02;6.80;;;24.70;51.60;;;;;;6155180;28;80953;-66
2021/08/25 09:50:31;;;;;;;18.00;6.47;;;24.70;51.10;;;;;;6154921;28;82410;-65
2021/08/25 09:53:32;;;;;;;14.30;6.50;;;24.70;51.70;;;;;;6154268;28;81820;-67
2021/08/25 09:56:33;;;;;;;15.82;6.78;;;24.70;50.80;;;;;;6155793;28;81791;-68
2021/08/25 09:59:33;;;;;;;12.77;6.35;;;24.70;51.00;;;;;;6154674;28;80403;-67
2021/08/25 10:02:34;;;;;;;20.13;6.15;;;24.70;51.60;;;;;;6154334;28;81919;-67
2021/08/25 10:05:35;;;;;;;16.67;7.03;;;24.70;51.30;;;;;;6155075;28;80486;-68
2021/08/25 10:08:35;;;;;;;11.65;6.10;;;24.70;50.80;;;;;;6143590;28;81371;-68
2021/08/25 10:11:36;;;;;;;14.27;7.15;;;24.70;50.90;;;;;;6135627;28;81543;-68
2021/08/25 10:14:36;;;;;;;9.40;6.43;;;24.70;50.60;;;;;;6181673;28;81397;-67
2021/08/25 10:17:37;;;;;;;22.98;7.22;;;24.70;50.50;;;;;;6181472;28;81508;-66
2021/08/25 10:20:37;;;;;;;15.10;6.85;;;24.70;50.50;;;;;;6189468;28;80853;-68
2021/08/25 10:23:38;;;;;;;12.27;7.00;;;24.70;51.00;;;;;;6181258;28;81782;-67
2021/08/25 10:26:38;;;;;;;12.57;6.78;;;24.70;50.80;;;;;;6181511;28;82077;-67
2021/08/25 10:29:39;;;;;;;16.67;6.85;;;24.70;50.90;;;;;;6193367;28;81300;-67
2021/08/25 10:32:39;;;;;;;10.13;6.30;;;24.70;50.50;;;;;;6187144;28;80503;-68
2021/08/25 10:35:41;;;;;;;14.48;7.03;;;24.70;49.70;;;;;;6189365;28;81042;-68
2021/08/25 10:38:43;;;;;;;12.18;6.80;;;24.70;48.60;;;;;;6181095;28;80486;-65
2021/08/25 10:41:44;;;;;;;12.10;6.35;;;24.70;47.30;;;;;;6176930;28;80518;-66
2021/08/25 10:44:44;;;;;;;11.50;6.95;;;24.70;47.60;;;;;;6162781;28;80660;-67
2021/08/25 10:47:45;;;;;;;15.52;6.82;;;24.70;48.70;;;;;;6166738;28;80282;-65
2021/08/25 10:50:45;;;;;;;11.85;6.80;;;24.60;47.90;;;;;;6180627;28;80486;-65
2021/08/25 10:53:46;;;;;;;12.57;7.25;;;24.60;46.00;;;;;;6161943;28;80582;-65
2021/08/25 10:56:46;;;;;;;12.32;7.03;;;24.60;45.90;;;;;;6160949;28;81501;-66
2021/08/25 10:59:47;;;;;;;13.57;7.18;;;24.60;45.10;;;;;;6162280;28;81027;-65
2021/08/25 11:02:47;;;;;;;15.55;6.60;;;24.60;44.10;;;;;;6159553;28;80952;-65
2021/08/25 11:05:47;;;;;;;14.27;7.70;;;24.60;45.50;;;;;;6161758;28;80729;-65
2021/08/25 11:08:48;;;;;;;13.90;7.47;;;24.60;43.80;;;;;;6166538;28;80850;-67
2021/08/25 11:11:48;;;;;;;13.40;7.60;;;24.50;42.50;;;;;;6172321;28;81465;-66
2021/08/25 11:14:49;;;;;;;11.45;6.22;;;24.60;44.60;;;;;;6161020;28;81513;-65
2021/08/25 11:17:50;;;;;;;14.32;6.80;;;24.50;45.40;;;;;;6174140;28;80131;-64
2021/08/25 11:20:50;;;;;;;11.45;6.82;;;24.60;45.20;;;;;;6159037;28;81440;-65
2021/08/25 11:23:51;;;;;;;13.35;7.53;;;24.60;45.00;;;;;;6159795;28;80995;-65
2021/08/25 11:26:51;;;;;;;13.32;7.20;;;24.60;45.70;;;;;;6159399;28;80915;-64
2021/08/25 11:29:51;;;;;;;13.35;7.28;;;24.60;44.70;;;;;;6157650;28;80500;-65
2021/08/25 11:32:52;;;;;;;15.07;7.35;;;24.60;44.40;;;;;;6156428;28;80464;-65
2021/08/25 11:35:53;;;;;;;12.68;6.95;;;24.60;43.90;;;;;;6171926;28;80673;-66
2021/08/25 11:38:53;;;;;;;16.15;7.93;;;24.60;44.50;;;;;;6154822;28;82213;-65
2021/08/25 11:41:54;;;;;;;11.82;6.70;;;24.60;44.10;;;;;;6155210;28;80783;-65
2021/08/25 11:44:54;;;;;;;12.57;6.60;;;24.60;44.60;;;;;;6164570;28;80533;-65
2021/08/25 11:47:55;;;;;;;12.40;6.60;;;24.60;44.70;;;;;;6168691;28;81841;-66
2021/08/25 11:50:55;;;;;;;13.70;7.05;;;24.70;44.50;;;;;;6160009;28;80893;-65
2021/08/25 11:53:56;;;;;;;13.50;7.40;;;24.60;44.60;;;;;;6159314;28;80642;-65
2021/08/25 11:56:56;;;;;;;11.85;6.43;;;24.60;44.50;;;;;;6148705;28;82992;-65
2021/08/25 11:59:57;;;;;;;12.90;7.47;;;24.60;44.30;;;;;;6173369;28;80398;-65
2021/08/25 12:02:57;;;;;;;15.90;7.45;;;24.60;45.10;;;;;;6148445;28;80356;-66
2021/08/25 12:05:58;;;;;;;15.05;7.47;;;24.60;45.20;;;;;;6170999;28;82813;-66
2021/08/25 12:08:58;;;;;;;13.45;6.90;;;24.60;45.60;;;;;;6166988;28;80881;-66
2021/08/25 12:11:59;;;;;;;13.75;7.10;;;24.60;45.40;;;;;;6165388;28;82373;-66
2021/08/25 12:14:59;;;;;;;14.68;7.45;;;24.60;44.40;;;;;;6161183;28;85204;-65
2021/08/25 12:17:59;;;;;;;13.88;7.60;;;24.60;45.40;;;;;;6162049;28;80145;-66
2021/08/25 12:21:00;;;;;;;16.08;8.40;;;24.60;44.60;;;;;;6153554;28;81590;-66
2021/08/25 12:24:01;;;;;;;14.55;7.80;;;24.60;44.10;;;;;;6168306;28;80701;-68
2021/08/25 12:27:01;;;;;;;13.73;7.68;;;24.60;44.30;;;;;;6202375;28;83791;-67
2021/08/25 12:30:02;;;;;;;11.95;7.55;;;24.60;44.00;;;;;;6158491;28;81867;-67
2021/08/25 12:33:05;;;;;;;17.23;8.48;;;24.70;44.10;;;;;;6171175;28;80454;-67
2021/08/25 12:36:05;;;;;;;13.43;8.05;;;24.60;44.10;;;;;;6161030;28;80612;-66
2021/08/25 12:39:06;;;;;;;14.85;8.27;;;24.60;44.40;;;;;;6160715;28;81094;-66
2021/08/25 12:42:06;;;;;;;17.50;8.93;;;24.60;44.70;;;;;;6159934;28;80751;-66
2021/08/25 12:45:07;;;;;;;15.20;9.02;;;24.70;40.50;;;;;;6167943;28;81907;-67
2021/08/25 12:48:07;;;;;;;16.50;9.98;;;24.60;41.00;;;;;;6163577;28;80852;-67
2021/08/25 12:51:08;;;;;;;15.60;9.85;;;24.60;39.90;;;;;;6161223;28;83366;-66
2021/08/25 12:54:09;;;;;;;14.02;8.48;;;24.60;40.10;;;;;;6165615;28;83513;-67
2021/08/25 12:57:09;;;;;;;16.00;9.52;;;24.60;41.30;;;;;;6164001;28;81350;-67
2021/08/25 13:00:10;;;;;;;15.00;9.18;;;24.60;41.60;;;;;;6165141;28;80417;-67
2021/08/25 13:03:11;;;;;;;14.70;9.20;;;24.60;41.80;;;;;;6155767;28;80580;-68
2021/08/25 13:06:11;;;;;;;15.60;9.25;;;24.60;41.20;;;;;;6159292;28;80532;-67
2021/08/25 13:09:11;;;;;;;16.05;9.60;;;24.60;41.30;;;;;;6154753;28;80147;-68
2021/08/25 13:12:12;;;;;;;16.55;9.88;;;24.60;41.70;;;;;;6158075;28;80594;-68
2021/08/25 13:15:12;;;;;;;16.30;9.55;;;24.60;41.10;;;;;;6169746;28;80706;-67
2021/08/25 13:18:13;;;;;;;17.73;10.68;;;24.60;42.00;;;;;;6158731;28;82353;-67
2021/08/25 13:21:13;;;;;;;20.05;10.50;;;24.60;40.80;;;;;;6155588;28;82928;-66
2021/08/25 13:24:14;;;;;;;17.25;10.75;;;24.60;41.10;;;;;;6167994;28;83558;-68
2021/08/25 13:27:14;;;;;;;18.67;9.95;;;24.60;40.40;;;;;;6170925;28;83471;-69
2021/08/25 13:30:15;;;;;;;17.17;10.75;;;24.60;40.00;;;;;;6161175;28;83106;-67
2021/08/25 13:33:15;;;;;;;18.00;10.40;;;24.60;40.50;;;;;;6159427;28;84581;-70
2021/08/25 13:36:16;;;;;;;15.32;10.30;;;24.60;40.70;;;;;;6150802;28;84197;-67
2021/08/25 13:39:16;;;;;;;18.60;11.40;;;24.60;41.10;;;;;;6160634;28;84070;-68
2021/08/25 13:42:17;;;;;;;20.00;11.60;;;24.60;41.20;;;;;;6143861;28;83289;-67
2021/08/25 13:45:17;;;;;;;17.90;10.77;;;24.60;41.50;;;;;;6158588;28;83273;-67
2021/08/25 13:48:18;;;;;;;17.25;11.05;;;24.60;41.10;;;;;;6156624;28;83226;-67
2021/08/25 13:51:19;;;;;;;17.23;10.77;;;24.60;39.80;;;;;;6144503;28;82970;-68
2021/08/25 13:54:19;;;;;;;17.17;11.07;;;24.60;40.60;;;;;;6144835;28;86482;-67
2021/08/25 13:57:20;;;;;;;18.25;11.07;;;24.60;40.60;;;;;;6155001;28;84546;-67
2021/08/25 14:00:20;;;;;;;18.08;10.68;;;24.60;40.60;;;;;;6151513;28;83288;-68
2021/08/25 14:03:21;;;;;;;18.40;10.98;;;24.60;40.50;;;;;;6152646;28;83153;-68
2021/08/25 14:06:21;;;;;;;15.10;10.10;;;24.60;40.70;;;;;;6163374;28;84009;-67
2021/08/25 14:09:22;;;;;;;17.52;10.60;;;24.60;40.80;;;;;;6151104;28;83236;-67
2021/08/25 14:12:22;;;;;;;16.58;10.57;;;24.60;41.50;;;;;;6153429;28;83240;-67
2021/08/25 14:15:23;;;;;;;17.25;10.52;;;24.60;40.70;;;;;;6145748;28;83264;-67
2021/08/25 14:18:23;;;;;;;17.98;11.23;;;24.60;41.00;;;;;;6149894;28;83297;-66
2021/08/25 14:21:24;;;;;;;17.63;10.77;;;24.60;41.40;;;;;;6154531;28;83764;-66
2021/08/25 14:24:24;;;;;;;18.52;11.25;;;24.50;39.70;;;;;;6159121;28;84583;-66
2021/08/25 14:27:25;;;;;;;20.23;12.10;;;24.50;40.60;;;;;;6159770;28;83357;-66
2021/08/25 14:30:25;;;;;;;20.77;11.85;;;24.50;40.40;;;;;;6163442;28;84064;-65
2021/08/25 14:33:26;;;;;;;20.40;12.40;;;24.40;40.50;;;;;;6157764;28;84341;-67
2021/08/25 14:36:26;;;;;;;17.83;11.05;;;24.40;40.00;;;;;;6171740;28;83059;-67
2021/08/25 14:39:27;;;;;;;19.90;12.20;;;24.40;39.90;;;;;;6160196;28;85496;-67
2021/08/25 14:42:27;;;;;;;20.08;12.10;;;24.40;39.50;;;;;;6153199;28;84041;-66
2021/08/25 14:45:28;;;;;;;16.73;11.18;;;24.40;40.10;;;;;;6147685;28;83371;-65
2021/08/25 14:48:29;;;;;;;21.98;12.27;;;24.40;40.30;;;;;;6136438;28;83986;-66
2021/08/25 14:51:29;;;;;;;23.83;11.70;;;24.40;40.90;;;;;;6154086;28;90349;-70
2021/08/25 14:54:30;;;;;;;17.92;11.30;;;24.40;40.30;;;;;;6163114;28;83681;-66
2021/08/25 14:57:30;;;;;;;20.55;11.07;;;24.40;40.70;;;;;;6166998;28;82994;-70
2021/08/25 15:00:33;;;;;;;21.90;13.25;;;24.40;40.40;;;;;;6159128;28;83406;-71
2021/08/25 15:03:35;;;;;;;24.05;11.75;;;24.40;40.60;;;;;;6171230;28;83976;-67
2021/08/25 15:06:37;;;;;;;19.65;10.95;;;24.40;40.70;;;;;;6158362;28;85231;-71
2021/08/25 15:09:39;;;;;;;20.20;11.82;;;24.40;40.90;;;;;;6160991;28;84531;-67
2021/08/25 15:12:40;;;;;;;21.00;11.52;;;24.40;41.10;;;;;;6162639;28;83212;-67
2021/08/25 15:15:40;;;;;;;23.60;11.85;;;24.30;40.80;;;;;;6159663;28;84330;-66
2021/08/25 15:18:41;;;;;;;17.63;11.30;;;24.40;40.50;;;;;;6150941;28;83567;-67
2021/08/25 15:21:41;;;;;;;20.27;11.00;;;24.30;40.50;;;;;;6155490;28;85865;-68
2021/08/25 15:24:42;;;;;;;22.42;11.23;;;24.30;40.50;;;;;;6160224;28;82986;-68
2021/08/25 15:27:42;;;;;;;18.55;11.02;;;24.30;41.00;;;;;;6155246;28;83685;-68
2021/08/25 15:30:44;;;;;;;17.70;10.73;;;24.30;41.00;;;;;;6151480;28;82775;-68
2021/08/25 15:33:44;;;;;;;25.60;11.45;;;24.30;40.90;;;;;;6171826;28;83462;-69